Paulden, Arizona
Current Conditions -  °F | °C
As of 11:53 AM on Sunday 21 Dec 2014 (Local Time) from KPRC Reporting Station
Clear Clear  
Wind Chill: 55°   Ceiling: Unl
Heat Index: 55°   Visibility: 10mi
Dew Point: 30°   Wind: 8mph
Humidity: 38%   Direction: 320°NW
Pressure: 30.13"   Gusts: NA
Location:  34.89°N, 112.47°W
Report Text: KPRC 211853Z 32007KT 10SM CLR 13/M01 A3013 RMK AO2 SLP173 T01281011
Loading
Personal Weather Stations






























Interactive Weather Map New forecast layout! Learn more

10-Day Weather Forecast

Advertisements
Track Severe Weather on mobile